Time;durP1;ratioP1;P1;durP2;ratioP2;P2;SDS_P1;SDS_P2;PMS_P1;PMS_P2;Temp;Humidity;BMP_temperature;BMP_pressure;BME280_temperature;BME280_humidity;BME280_pressure;Samples;Min_cycle;Max_cycle;Signal;HPM_P1;HPM_P2
2022/11/25 00:00:19;;;;;;;12.25;5.33;;;;;;;4.43;100.00;100295.95;1796347;78;20947;-89
2022/11/25 00:03:05;;;;;;;13.95;5.75;;;;;;;4.41;100.00;100294.02;1787775;78;21213;-89
2022/11/25 00:05:50;;;;;;;16.97;6.95;;;;;;;4.42;100.00;100303.77;1799380;78;21070;-88
2022/11/25 00:08:35;;;;;;;14.30;6.00;;;;;;;4.44;100.00;100308.41;1790306;78;21870;-88
2022/11/25 00:11:20;;;;;;;13.00;6.22;;;;;;;4.44;100.00;100308.41;1797739;78;21014;-88
2022/11/25 00:14:07;;;;;;;15.03;6.17;;;;;;;4.42;100.00;100307.82;1757571;80;20978;-85
2022/11/25 00:16:53;;;;;;;18.50;6.28;;;;;;;4.42;100.00;100298.89;1727687;80;21065;-89
2022/11/25 00:19:37;;;;;;;14.35;5.97;;;;;;;4.46;100.00;100300.05;1758921;80;21026;-88
2022/11/25 00:22:22;;;;;;;14.30;6.22;;;;;;;4.45;100.00;100301.09;1760415;79;21102;-89
2022/11/25 00:25:07;;;;;;;17.10;7.65;;;;;;;4.44;100.00;100307.59;1763969;80;21487;-88
2022/11/25 00:27:54;;;;;;;25.37;7.35;;;;;;;4.44;100.00;100307.59;1759198;80;21014;-89
2022/11/25 00:30:39;;;;;;;19.82;7.12;;;;;;;4.43;100.00;100307.31;1764005;80;21014;-89
2022/11/25 00:33:23;;;;;;;13.80;6.03;;;;;;;4.43;100.00;100301.91;1766573;79;21069;-91
2022/11/25 00:36:19;;;;;;;18.40;7.40;;;;;;;4.40;100.00;100302.36;1728969;80;21034;-89
2022/11/25 00:39:07;;;;;;;17.50;6.67;;;;;;;4.39;100.00;100302.08;1760970;80;21050;-88
2022/11/25 00:44:54;;;;;;;;;;;;;;;4.37;100.00;100305.56;1754451;81;21013;-88
2022/11/25 00:47:39;;;;;;;14.03;6.17;;;;;;;4.38;100.00;100309.39;1760004;80;20216;-88
2022/11/25 00:50:25;;;;;;;12.65;6.72;;;;;;;4.37;100.00;100307.73;1764197;80;21027;-86
2022/11/25 00:53:10;;;;;;;18.50;6.55;;;;;;;4.36;100.00;100304.74;1759455;80;21257;-89
2022/11/25 00:56:12;;;;;;;20.27;7.22;;;;;;;4.36;100.00;100307.45;1724308;80;21589;-90
2022/11/25 00:58:56;;;;;;;17.57;7.25;;;;;;;4.38;100.00;100304.52;1753146;80;21006;-88
2022/11/25 07:13:23;;;;;;;14.63;5.45;;;;;;;3.18;100.00;100562.83;1829195;77;23363;-91
2022/11/25 07:16:09;;;;;;;18.00;6.90;;;;;;;3.36;100.00;100574.15;1765046;80;21046;-91
2022/11/25 07:18:54;;;;;;;25.68;9.43;;;;;;;3.51;100.00;100576.94;1757462;80;21432;-91
2022/11/25 07:22:37;;;;;;;37.40;13.88;;;;;;;3.56;100.00;100577.92;1728200;83;21031;-91
2022/11/25 07:25:21;;;;;;;27.07;10.75;;;;;;;3.63;100.00;100576.45;1731451;81;20999;-87
2022/11/25 07:28:05;;;;;;;19.57;7.62;;;;;;;3.66;100.00;100585.47;1750985;81;21477;-86
2022/11/25 07:30:50;;;;;;;26.30;9.53;;;;;;;3.68;100.00;100576.58;1750316;81;20972;-85
2022/11/25 07:33:35;;;;;;;18.42;8.05;;;;;;;3.70;100.00;100574.48;1739490;81;21010;-87
2022/11/25 07:36:20;;;;;;;21.25;7.50;;;;;;;3.69;100.00;100578.25;1731013;82;21129;-87
2022/11/25 07:39:07;;;;;;;20.88;7.00;;;;;;;3.73;100.00;100582.65;1757857;81;21023;-85
2022/11/25 07:41:52;;;;;;;18.60;7.20;;;;;;;3.77;100.00;100580.61;1721854;79;21025;-84
2022/11/25 07:44:37;;;;;;;16.32;6.15;;;;;;;3.78;100.00;100579.55;1740413;80;21014;-86
2022/11/25 07:47:34;;;;;;;18.50;7.17;;;;;;;3.78;100.00;100586.30;1770018;80;20991;-85
2022/11/25 07:50:19;;;;;;;15.65;6.03;;;;;;;3.78;100.00;100589.00;1683795;82;21019;-84
2022/11/25 07:53:04;;;;;;;16.93;5.92;;;;;;;3.79;100.00;100592.55;1776427;79;21046;-87
2022/11/25 07:55:48;;;;;;;17.50;5.85;;;;;;;3.76;100.00;100587.09;1692888;82;21050;-85
2022/11/25 07:58:33;;;;;;;14.30;6.78;;;;;;;3.76;100.00;100587.09;1719067;82;21066;-85
2022/11/25 08:01:18;;;;;;;17.12;6.60;;;;;;;3.76;100.00;100585.73;1745513;80;20968;-85
2022/11/25 08:04:03;;;;;;;17.40;7.75;;;;;;;3.75;100.00;100585.95;1744784;81;21027;-85
2022/11/25 08:06:50;;;;;;;14.85;5.80;;;;;;;3.74;100.00;100581.08;1733247;81;21039;-85
2022/11/25 08:09:35;;;;;;;18.00;7.08;;;;;;;3.80;100.00;100584.73;1750673;79;21427;-84
2022/11/25 08:12:21;;;;;;;15.38;6.87;;;;;;;3.83;100.00;100581.05;1755256;80;21027;-85
2022/11/25 08:15:07;;;;;;;17.73;7.87;;;;;;;3.85;100.00;100582.97;1724896;79;21020;-86
2022/11/25 08:17:52;;;;;;;13.08;6.10;;;;;;;3.87;100.00;100586.27;1733881;81;20949;-86
2022/11/25 08:20:37;;;;;;;11.33;5.05;;;;;;;3.88;100.00;100589.80;1707036;83;21026;-86
2022/11/25 08:23:21;;;;;;;14.00;5.05;;;;;;;3.84;100.00;100592.15;1702292;83;21059;-83
2022/11/25 08:26:09;;;;;;;9.60;5.03;;;;;;;3.84;100.00;100592.69;1688487;83;21094;-86
2022/11/25 08:28:54;;;;;;;13.95;5.25;;;;;;;3.84;100.00;100596.73;1726725;82;21054;-84
2022/11/25 08:31:41;;;;;;;10.05;4.65;;;;;;;3.81;100.00;100592.63;1722456;81;21031;-85
2022/11/25 08:34:25;;;;;;;12.82;5.65;;;;;;;3.80;100.00;100586.90;1696007;82;21050;-85
2022/11/25 08:37:12;;;;;;;14.40;5.22;;;;;;;3.80;100.00;100589.60;1729804;79;20992;-85
2022/11/25 08:39:57;;;;;;;14.33;5.20;;;;;;;3.80;100.00;100590.95;1747253;79;21189;-85
2022/11/25 08:42:41;;;;;;;13.53;5.67;;;;;;;3.79;100.00;100589.85;1754258;81;20968;-87
2022/11/25 08:45:26;;;;;;;11.08;5.35;;;;;;;3.79;100.00;100587.15;1741704;81;20987;-84
2022/11/25 08:48:12;;;;;;;14.83;6.67;;;;;;;3.78;100.00;100590.89;1755636;79;21389;-85
2022/11/25 08:50:56;;;;;;;14.65;5.90;;;;;;;3.77;100.00;100583.84;1711884;82;21567;-85
2022/11/25 08:53:41;;;;;;;16.27;6.05;;;;;;;3.77;100.00;100587.91;1762334;80;20960;-84
2022/11/25 08:56:26;;;;;;;14.33;6.15;;;;;;;3.76;100.00;100589.79;1694359;82;21003;-83
2022/11/25 08:59:12;;;;;;;14.78;6.28;;;;;;;3.75;100.00;100584.06;1744317;81;20982;-85
2022/11/25 09:01:56;;;;;;;11.68;5.28;;;;;;;3.77;100.00;100587.91;1750152;79;21007;-86
2022/11/25 09:04:42;;;;;;;16.50;7.00;;;;;;;3.79;100.00;100588.50;1754564;80;21018;-85
2022/11/25 09:07:26;;;;;;;19.48;7.05;;;;;;;3.79;100.00;100587.97;1737113;80;21055;-86
2022/11/25 09:10:14;;;;;;;18.20;8.10;;;;;;;3.78;100.00;100587.66;1688089;83;21071;-81
2022/11/25 09:12:59;;;;;;;13.95;6.28;;;;;;;3.79;100.00;100582.56;1691928;83;21000;-85
2022/11/25 09:15:44;;;;;;;17.87;7.17;;;;;;;3.82;100.00;100584.80;1742490;81;20995;-84
2022/11/25 09:18:29;;;;;;;17.67;7.08;;;;;;;3.88;100.00;100589.29;1739917;81;20993;-85
2022/11/25 09:21:15;;;;;;;16.30;6.67;;;;;;;3.88;100.00;100587.94;1690078;81;21047;-88
2022/11/25 09:24:00;;;;;;;21.25;7.47;;;;;;;3.88;100.00;100587.94;1740225;81;22070;-86
2022/11/25 09:26:45;;;;;;;17.27;6.65;;;;;;;3.90;100.00;100584.16;1748332;81;20956;-84
2022/11/25 09:29:30;;;;;;;11.43;5.70;;;;;;;3.93;100.00;100587.75;1744299;80;21051;-86
2022/11/25 09:32:15;;;;;;;15.75;7.15;;;;;;;3.93;100.00;100580.99;1741815;80;21042;-86
2022/11/25 09:35:00;;;;;;;16.20;6.75;;;;;;;3.92;100.00;100582.87;1732574;81;21075;-85
2022/11/25 09:37:44;;;;;;;14.30;5.67;;;;;;;3.95;100.00;100587.00;1752217;81;21106;-85
2022/11/25 09:40:37;;;;;;;15.28;6.30;;;;;;;3.92;100.00;100578.83;1748464;81;21039;-85
2022/11/25 09:46:52;;;;;;;17.62;6.60;;;;;;;3.97;100.00;100584.89;1730196;81;21438;-85
2022/11/25 09:50:01;;;;;;;19.45;7.15;;;;;;;3.96;100.00;100584.08;1740664;81;20995;-83
2022/11/25 09:53:06;;;;;;;16.02;6.47;;;;;;;3.97;100.00;100581.65;1739366;81;21659;-86
2022/11/25 09:55:53;;;;;;;18.42;7.62;;;;;;;3.98;100.00;100587.38;1728107;82;20999;-86
2022/11/25 09:58:57;;;;;;;19.82;7.05;;;;;;;3.97;100.00;100584.36;1708973;82;20988;-85
2022/11/25 13:12:38;;;;;;;14.28;5.50;;;;;;;3.02;100.00;100675.52;1785428;77;29329;-80
2022/11/25 13:15:28;;;;;;;33.67;12.98;;;;;;;3.15;100.00;100679.94;1766913;78;20995;-80
2022/11/25 13:18:15;;;;;;;34.40;12.18;;;;;;;3.27;100.00;100683.55;1781447;80;21900;-79
2022/11/25 13:21:08;;;;;;;23.25;10.28;;;;;;;3.28;100.00;100690.58;1767213;79;20972;-79
2022/11/25 13:23:57;;;;;;;23.60;8.93;;;;;;;3.29;100.00;100692.25;1768510;78;21048;-79
2022/11/25 13:26:46;;;;;;;23.30;10.68;;;;;;;3.28;100.00;100693.28;1758035;79;21007;-79
2022/11/25 13:29:45;;;;;;;23.42;10.30;;;;;;;3.31;100.00;100696.88;1778722;79;21021;-79
2022/11/25 13:32:33;;;;;;;21.00;8.68;;;;;;;3.35;100.00;100696.73;1786460;78;21033;-79
2022/11/25 13:35:31;;;;;;;18.30;6.20;;;;;;;3.36;100.00;100693.50;1777069;78;21460;-79
2022/11/25 13:38:36;;;;;;;13.00;6.83;;;;;;;3.39;100.00;100688.49;1702856;82;21038;-79
2022/11/25 13:41:36;;;;;;;15.85;7.37;;;;;;;3.44;100.00;100701.33;1719397;81;21051;-79
2022/11/25 13:44:26;;;;;;;18.73;7.37;;;;;;;3.42;100.00;100696.67;1716820;82;21477;-79
2022/11/25 13:47:31;;;;;;;15.35;7.28;;;;;;;3.43;100.00;100688.31;1710103;82;21027;-79
2022/11/25 13:50:22;;;;;;;19.92;6.97;;;;;;;3.50;100.00;100693.65;1714137;81;21035;-79
2022/11/25 13:53:27;;;;;;;14.35;5.30;;;;;;;3.53;100.00;100697.77;1727306;82;21041;-79
2022/11/25 13:56:28;;;;;;;14.78;6.80;;;;;;;3.53;100.00;100693.19;1718242;81;21008;-78
2022/11/25 13:59:18;;;;;;;14.00;6.58;;;;;;;3.55;100.00;100705.14;1730186;82;21038;-79
2022/11/25 14:02:30;;;;;;;14.15;6.03;;;;;;;3.56;100.00;100701.37;1726069;82;21111;-78
2022/11/25 14:05:36;;;;;;;15.03;5.25;;;;;;;3.52;100.00;100702.36;1723722;81;21053;-78
2022/11/25 14:08:52;;;;;;;16.42;6.25;;;;;;;3.54;100.00;100708.91;1722472;81;20987;-78
2022/11/25 14:11:54;;;;;;;12.28;6.28;;;;;;;3.53;100.00;100691.02;1709037;83;21407;-79
2022/11/25 14:15:09;;;;;;;16.37;6.87;;;;;;;3.50;100.00;100695.53;1655042;83;21049;-79
2022/11/25 14:18:22;;;;;;;18.82;6.62;;;;;;;3.45;100.00;100698.91;1680037;83;21007;-78
2022/11/25 14:21:44;;;;;;;18.90;6.72;;;;;;;3.39;100.00;100697.95;1716485;83;21009;-79
2022/11/25 14:24:43;;;;;;;17.27;6.92;;;;;;;3.43;100.00;100707.23;1747918;80;20966;-78
2022/11/25 14:27:32;;;;;;;15.30;7.25;;;;;;;3.42;100.00;100700.19;1731886;82;20998;-78
2022/11/25 14:30:17;;;;;;;17.95;7.30;;;;;;;3.43;100.00;100701.83;1732162;81;21097;-78
2022/11/25 14:33:02;;;;;;;17.12;7.47;;;;;;;3.44;100.00;100704.03;1731969;81;21584;-78
2022/11/25 14:35:50;;;;;;;12.45;5.92;;;;;;;3.39;100.00;100711.45;1701478;82;20990;-78
2022/11/25 14:38:58;;;;;;;22.98;7.00;;;;;;;3.39;100.00;100707.41;1734600;81;21015;-78
2022/11/25 14:42:02;;;;;;;20.30;7.55;;;;;;;3.38;100.00;100707.62;1713237;81;21039;-78
2022/11/25 14:44:50;;;;;;;18.40;6.62;;;;;;;3.38;100.00;100712.48;1721600;83;21049;-79
2022/11/25 14:47:35;;;;;;;16.20;7.15;;;;;;;3.35;100.00;100714.30;1721108;81;21533;-79
2022/11/25 14:50:20;;;;;;;26.25;8.75;;;;;;;3.32;100.00;100712.05;1747650;81;21835;-78
2022/11/25 14:53:08;;;;;;;15.95;6.92;;;;;;;3.32;100.00;100718.80;1751078;81;21528;-78
2022/11/25 14:55:56;;;;;;;15.55;6.65;;;;;;;3.33;100.00;100715.04;1732568;81;21096;-78
2022/11/25 14:58:50;;;;;;;24.90;9.40;;;;;;;3.29;100.00;100717.91;1722777;83;21010;-79
2022/11/25 15:01:36;;;;;;;40.38;15.75;;;;;;;3.24;100.00;100720.46;1699429;83;21048;-78
2022/11/25 15:04:23;;;;;;;23.50;10.55;;;;;;;3.22;100.00;100721.20;1712251;82;21057;-78
2022/11/25 15:07:18;;;;;;;19.55;8.08;;;;;;;3.19;100.00;100728.37;1731627;82;20965;-78
2022/11/25 15:10:03;;;;;;;20.57;7.33;;;;;;;3.18;100.00;100725.39;1746010;81;20991;-78
2022/11/25 15:12:49;;;;;;;22.22;9.08;;;;;;;3.16;100.00;100726.95;1750539;81;20988;-79
2022/11/25 15:15:34;;;;;;;18.37;9.85;;;;;;;3.14;100.00;100732.28;1751631;81;21004;-78
2022/11/25 15:18:21;;;;;;;15.32;7.35;;;;;;;3.11;100.00;100730.03;1746242;82;20985;-78
2022/11/25 15:29:11;;;;;;;14.40;6.15;;;;;;;3.07;100.00;100727.50;1848027;77;23277;-76
2022/11/25 15:31:56;;;;;;;17.00;7.58;;;;;;;2.99;100.00;100728.08;1768204;78;21028;-76
2022/11/25 15:34:41;;;;;;;17.10;6.75;;;;;;;2.96;100.00;100740.65;1763930;79;20987;-76
2022/11/25 15:37:26;;;;;;;15.43;6.42;;;;;;;2.90;100.00;100732.64;1772462;80;20965;-76
2022/11/25 15:40:38;;;;;;;13.48;5.25;;;;;;;2.89;100.00;100729.62;1751036;79;21491;-76
2022/11/25 15:43:27;;;;;;;13.00;4.78;;;;;;;2.93;100.00;100728.95;1770364;79;20995;-76
2022/11/25 15:46:12;;;;;;;15.45;6.15;;;;;;;2.95;100.00;100729.56;1748517;79;21015;-76
2022/11/25 15:49:04;;;;;;;15.48;6.08;;;;;;;2.93;100.00;100728.14;1757694;81;20984;-76
2022/11/25 15:51:58;;;;;;;15.32;6.05;;;;;;;2.90;100.00;100732.64;1768336;80;21076;-76
2022/11/25 15:54:48;;;;;;;12.30;5.55;;;;;;;2.90;100.00;100729.41;1774444;79;21536;-76
2022/11/25 15:57:35;;;;;;;15.18;5.53;;;;;;;2.86;100.00;100729.53;1730869;82;21481;-78
2022/11/25 16:00:23;;;;;;;10.88;5.25;;;;;;;2.83;100.00;100729.98;1695195;83;21014;-78
2022/11/25 19:26:06;;;;;;;20.30;7.87;;;;;;;2.24;100.00;100817.03;1850864;75;23363;-78
2022/11/25 19:28:54;;;;;;;12.68;6.37;;;;;;;2.26;100.00;100820.88;1795106;78;21777;-78
2022/11/25 19:31:39;;;;;;;14.80;6.40;;;;;;;2.31;100.00;100821.05;1734506;80;21014;-78
2022/11/25 19:34:37;;;;;;;21.48;7.58;;;;;;;2.36;100.00;100819.35;1777131;79;20982;-78
2022/11/25 19:37:21;;;;;;;24.15;8.00;;;;;;;2.39;100.00;100815.39;1763338;79;21006;-78
2022/11/25 19:40:15;;;;;;;14.90;8.10;;;;;;;2.46;100.00;100820.77;1785367;78;21066;-79
2022/11/25 19:43:00;;;;;;;19.95;6.85;;;;;;;2.45;100.00;100823.98;1769768;78;21104;-78
2022/11/25 19:45:45;;;;;;;17.77;6.92;;;;;;;2.46;100.00;100816.72;1762718;79;20963;-79
2022/11/25 19:48:34;;;;;;;18.60;5.95;;;;;;;2.45;100.00;100821.79;1712065;82;21583;-78
2022/11/25 19:51:20;;;;;;;17.87;6.67;;;;;;;2.48;100.00;100825.42;1687175;82;21014;-78
2022/11/25 19:54:12;;;;;;;13.72;6.03;;;;;;;2.46;100.00;100821.58;1694639;82;21060;-78
2022/11/25 19:56:57;;;;;;;13.43;5.47;;;;;;;2.43;100.00;100826.07;1770878;78;21018;-78
2022/11/25 19:59:42;;;;;;;18.85;5.72;;;;;;;2.45;100.00;100832.08;1786431;79;20990;-78
2022/11/25 20:02:27;;;;;;;12.93;5.60;;;;;;;2.43;100.00;100828.77;1710743;82;20983;-78
2022/11/25 20:05:23;;;;;;;19.98;6.72;;;;;;;2.42;100.00;100832.48;1720126;82;21521;-79
2022/11/25 20:08:13;;;;;;;21.65;7.37;;;;;;;2.41;100.00;100828.15;1741527;80;21524;-78
2022/11/25 20:10:58;;;;;;;20.75;7.25;;;;;;;2.42;100.00;100830.32;1770155;79;21038;-78
2022/11/25 20:13:43;;;;;;;16.95;6.42;;;;;;;2.43;100.00;100833.34;1741803;80;21053;-78
2022/11/25 20:16:35;;;;;;;28.42;12.03;;;;;;;2.38;100.00;100839.38;1778328;79;20982;-78
2022/11/25 20:19:20;;;;;;;22.13;8.93;;;;;;;2.39;100.00;100830.23;1761557;79;21029;-78
2022/11/25 20:22:05;;;;;;;14.90;7.30;;;;;;;2.40;100.00;100839.14;1731956;82;21013;-78
2022/11/25 20:24:50;;;;;;;16.35;7.65;;;;;;;2.38;100.00;100831.81;1762838;80;21490;-78
2022/11/25 20:27:35;;;;;;;17.48;6.37;;;;;;;2.34;100.00;100825.48;1771971;79;21045;-79
2022/11/25 20:30:24;;;;;;;19.57;6.47;;;;;;;2.34;100.00;100830.05;1732809;81;21101;-79
2022/11/25 20:33:10;;;;;;;23.55;8.13;;;;;;;2.30;100.00;100832.37;1767177;80;21011;-79
2022/11/25 20:36:04;;;;;;;19.02;7.58;;;;;;;2.29;100.00;100832.58;1772694;80;21037;-79
2022/11/25 20:38:51;;;;;;;20.08;7.60;;;;;;;2.28;100.00;100840.37;1779618;79;20988;-79
2022/11/25 20:41:36;;;;;;;25.55;8.05;;;;;;;2.27;100.00;100835.47;1775717;80;20962;-79
2022/11/25 20:44:21;;;;;;;23.32;9.03;;;;;;;2.29;100.00;100840.66;1772966;80;20994;-79
2022/11/25 20:47:18;;;;;;;23.18;7.53;;;;;;;2.28;100.00;100839.84;1778973;79;21422;-79
2022/11/25 20:50:04;;;;;;;25.55;8.45;;;;;;;2.28;100.00;100843.06;1780989;79;21074;-79
2022/11/25 20:52:49;;;;;;;20.65;7.67;;;;;;;2.34;100.00;100847.58;1789132;79;21003;-79
2022/11/25 20:55:34;;;;;;;25.08;8.63;;;;;;;2.31;100.00;100845.33;1778798;79;21806;-79
2022/11/25 20:58:25;;;;;;;23.83;8.43;;;;;;;2.29;100.00;100846.05;1805930;79;21051;-78
2022/11/25 21:01:09;;;;;;;21.23;8.03;;;;;;;2.31;100.00;100852.89;1797477;78;21028;-78
2022/11/25 21:03:54;;;;;;;23.30;7.65;;;;;;;2.32;100.00;100842.92;1784890;78;21046;-79
2022/11/25 21:06:39;;;;;;;20.92;8.05;;;;;;;2.29;100.00;100852.27;1782618;79;21527;-79
2022/11/25 21:09:28;;;;;;;26.40;7.53;;;;;;;2.28;100.00;100856.55;1804437;79;21439;-81
2022/11/25 21:12:13;;;;;;;26.90;8.78;;;;;;;2.30;100.00;100861.18;1784629;79;20994;-81
2022/11/25 21:15:00;;;;;;;29.15;7.65;;;;;;;2.28;100.00;100861.41;1771186;78;20974;-80
2022/11/25 21:17:46;;;;;;;24.98;8.18;;;;;;;2.29;100.00;100854.14;1769393;79;21005;-80
2022/11/25 21:20:31;;;;;;;18.92;6.90;;;;;;;2.32;100.00;100861.27;1777073;79;21075;-80
2022/11/25 21:23:31;;;;;;;20.10;7.83;;;;;;;2.28;100.00;100856.55;1722491;81;21594;-80
2022/11/25 21:26:18;;;;;;;22.45;8.53;;;;;;;2.25;100.00;100852.41;1723297;81;21014;-80
2022/11/25 21:29:04;;;;;;;37.23;12.82;;;;;;;2.25;100.00;100856.95;1724899;79;21502;-80
2022/11/25 21:31:49;;;;;;;21.90;8.05;;;;;;;2.24;100.00;100862.88;1758266;81;20951;-81
2022/11/25 21:34:34;;;;;;;18.92;6.47;;;;;;;2.24;100.00;100860.17;1736957;79;21084;-81
2022/11/25 21:37:30;;;;;;;17.35;6.40;;;;;;;2.26;100.00;100863.49;1739921;80;21359;-80
2022/11/25 21:40:38;;;;;;;19.73;7.25;;;;;;;2.30;100.00;100866.58;1735868;82;20981;-81
2022/11/25 21:43:31;;;;;;;17.70;7.47;;;;;;;2.34;100.00;100869.16;1743708;81;21601;-81
2022/11/25 21:46:18;;;;;;;23.45;7.50;;;;;;;2.35;100.00;100865.44;1671570;82;20995;-80
2022/11/25 21:49:10;;;;;;;16.32;5.80;;;;;;;2.37;100.00;100867.37;1709677;81;21081;-81
2022/11/25 21:51:54;;;;;;;17.35;6.53;;;;;;;2.39;100.00;100865.82;1756839;80;21025;-80
2022/11/25 21:54:39;;;;;;;14.33;5.87;;;;;;;2.37;100.00;100870.07;1755202;79;21504;-80
2022/11/25 21:57:26;;;;;;;15.98;6.47;;;;;;;2.38;100.00;100872.27;1743711;81;21017;-81
2022/11/25 22:00:20;;;;;;;21.05;7.00;;;;;;;2.40;100.00;100877.76;1731964;82;21025;-81
2022/11/25 22:03:11;;;;;;;17.60;6.45;;;;;;;2.41;100.00;100874.00;1692833;84;21073;-81
2022/11/25 22:05:55;;;;;;;14.95;5.17;;;;;;;2.40;100.00;100871.51;1739716;80;21508;-81
2022/11/25 22:08:41;;;;;;;16.05;4.95;;;;;;;2.41;100.00;100874.00;1742443;81;21009;-81
2022/11/25 22:11:29;;;;;;;15.70;5.62;;;;;;;2.43;100.00;100870.58;1722515;81;21021;-81
2022/11/25 22:14:27;;;;;;;15.13;5.17;;;;;;;2.41;100.00;100871.31;1734448;81;21009;-81
2022/11/25 22:17:13;;;;;;;13.25;5.45;;;;;;;2.39;100.00;100870.69;1736726;81;21013;-81
2022/11/25 22:19:58;;;;;;;16.35;6.17;;;;;;;2.38;100.00;100871.74;1692168;83;21029;-81
2022/11/25 22:22:42;;;;;;;15.35;5.08;;;;;;;2.37;100.00;100876.81;1743827;81;21029;-81
2022/11/25 22:25:29;;;;;;;13.08;5.17;;;;;;;2.38;100.00;100875.79;1765868;79;20985;-81
2022/11/25 22:28:14;;;;;;;10.95;4.92;;;;;;;2.39;100.00;100869.34;1704832;82;21002;-81
2022/11/25 22:31:01;;;;;;;16.70;6.42;;;;;;;2.41;100.00;100874.00;1703731;83;21051;-80
2022/11/25 22:33:46;;;;;;;15.13;6.30;;;;;;;2.45;100.00;100872.55;1705760;83;21023;-81
2022/11/25 22:36:35;;;;;;;15.35;6.25;;;;;;;2.44;100.00;100866.82;1706524;83;20995;-81
2022/11/25 22:39:26;;;;;;;18.70;7.70;;;;;;;2.44;100.00;100867.34;1720869;83;21052;-81
2022/11/25 22:42:26;;;;;;;19.12;7.08;;;;;;;2.45;100.00;100867.15;1710518;82;21046;-81
2022/11/25 22:45:29;;;;;;;18.67;6.67;;;;;;;2.44;100.00;100866.82;1703541;83;21074;-81
2022/11/25 22:48:18;;;;;;;22.05;6.65;;;;;;;2.44;100.00;100868.17;1706874;83;21076;-80
2022/11/25 22:51:04;;;;;;;16.12;5.67;;;;;;;2.43;100.00;100867.06;1666802;83;21054;-81
2022/11/25 22:53:49;;;;;;;15.53;5.05;;;;;;;2.41;100.00;100871.31;1697909;83;21019;-81
2022/11/25 22:56:33;;;;;;;14.43;4.87;;;;;;;2.38;100.00;100874.44;1707164;83;21058;-81
2022/11/25 22:59:18;;;;;;;13.70;5.80;;;;;;;2.37;100.00;100870.07;1762389;80;21017;-81
2022/11/25 23:02:03;;;;;;;12.18;4.42;;;;;;;2.36;100.00;100871.95;1762400;80;21007;-80
2022/11/25 23:04:51;;;;;;;16.25;4.58;;;;;;;2.36;100.00;100871.13;1701744;82;21057;-81
2022/11/25 23:07:36;;;;;;;17.17;5.80;;;;;;;2.34;100.00;100874.55;1737329;80;20975;-80
2022/11/25 23:10:25;;;;;;;13.88;4.65;;;;;;;2.31;100.00;100872.30;1761238;79;21106;-81
2022/11/25 23:13:10;;;;;;;11.88;5.50;;;;;;;2.31;100.00;100870.95;1742265;80;21039;-81
2022/11/25 23:15:58;;;;;;;13.88;5.50;;;;;;;2.30;100.00;100875.52;1754191;80;21043;-81
2022/11/25 23:18:44;;;;;;;13.10;5.45;;;;;;;2.29;100.00;100875.72;1753570;80;20985;-81
2022/11/25 23:21:29;;;;;;;16.40;5.92;;;;;;;2.30;100.00;100877.36;1754964;79;21019;-81
2022/11/25 23:24:15;;;;;;;13.75;4.58;;;;;;;2.29;100.00;100875.72;1704194;82;20991;-81
2022/11/25 23:27:00;;;;;;;13.03;5.15;;;;;;;2.27;100.00;100871.88;1751080;80;21093;-81
2022/11/25 23:29:45;;;;;;;13.22;5.65;;;;;;;2.29;100.00;100874.37;1772115;79;20984;-81
2022/11/25 23:32:29;;;;;;;9.90;4.40;;;;;;;2.31;100.00;100881.73;1774898;79;20954;-81
2022/11/25 23:35:19;;;;;;;13.93;5.25;;;;;;;2.31;100.00;100879.03;1787982;79;21399;-81
2022/11/25 23:38:07;;;;;;;11.73;4.47;;;;;;;2.31;100.00;100884.43;1793582;79;21871;-81
2022/11/25 23:40:52;;;;;;;14.85;4.90;;;;;;;2.32;100.00;100882.03;1780414;79;21011;-81
2022/11/25 23:43:37;;;;;;;17.40;4.97;;;;;;;2.33;100.00;100879.66;1774998;79;21045;-81
2022/11/25 23:46:26;;;;;;;12.10;5.08;;;;;;;2.33;100.00;100882.35;1696668;83;21011;-81
2022/11/25 23:49:16;;;;;;;13.45;5.22;;;;;;;2.33;100.00;100887.74;1790877;79;21019;-81
2022/11/25 23:52:01;;;;;;;11.45;3.85;;;;;;;2.33;100.00;100885.88;1805750;79;21023;-81
2022/11/25 23:54:47;;;;;;;12.15;5.47;;;;;;;2.33;100.00;100891.27;1777033;79;21026;-81
2022/11/25 23:57:32;;;;;;;10.58;4.83;;;;;;;2.33;100.00;100883.17;1691727;82;21017;-81
